• Join FlightAware (Why Join?)
  • Login
  • US Flag 
02:04AM EDT


 

Airport Tracker/Info


-or-


 

Live Flight TrackerFlight Track Log ✈ FEX300 ✈ 28-Jun-2013 ✈ CYXU - CYKZ

Flight Track Log - Related Links

Times and Time Zones

All times are in EDT time to prevent confusion due to time zone crossing. See the FEX300 flight status page for this flight to view local times or setup timezone preferences in your user account.

Time Position Orientation Groundspeed Altitude Reporting Facility
EDT Latitude Longitude Course Direction KTS MPH feet Rate Location/Type
07:24PM 43.0333 -81.1000 56° Northeast 140 161 2,100  Level Toronto Center
07:25PM 43.0500 -81.0500 65° Northeast 140 161 3,700 1,320 Climbing Toronto Center
07:26PM 43.0833 -81.0000 48° Northeast 160 184 4,800 1,200 Climbing Toronto Center
07:27PM 43.1167 -80.9500 48° Northeast 170 196 6,100 1,020 Climbing Toronto Center
07:28PM 43.1333 -80.9167 56° Northeast 170 196 6,900 420 Climbing Toronto Center
07:29PM 43.2597 -80.6807 57° Northeast  Level Estimated
07:29PM 43.1833 -80.8500 44° Northeast 200 230 7,000  Level Toronto Center
07:30PM 43.2333 -80.7833 44° Northeast 210 242 7,000 -60 Level Toronto Center
07:31PM 43.2833 -80.7500 26° Northeast 220 253 6,900 -60 Descending Toronto Center
07:32PM 43.3500 -80.7333 10° North 220 253 6,900  Level Toronto Center
07:33PM 43.4000 -80.6667 44° Northeast 220 253 6,900  Level Toronto Center
07:34PM 43.4500 -80.6167 36° Northeast 220 253 7,000  Climbing Toronto Center
07:35PM 43.5000 -80.5833 26° Northeast 220 253 7,000  Level Toronto Center
07:36PM 43.5500 -80.5333 36° Northeast 220 253 7,000  Level Toronto Center
07:37PM 43.5833 -80.4667 55° Northeast 220 253 7,000  Level Toronto Center
07:38PM 43.6333 -80.4167 36° Northeast 220 253 7,000  Level Toronto Center
07:39PM 43.6667 -80.3500 55° Northeast 210 242 7,000  Level Toronto Center
07:40PM 43.7000 -80.2833 55° Northeast 210 242 7,000 -540 Level Toronto Center
07:41PM 43.7167 -80.1833 77° East 230 265 6,000 -600 Descending Toronto Center
07:42PM 43.7500 -80.1167 55° Northeast 230 265 5,900 -1,080 Descending Toronto Center
07:43PM 43.7667 -80.0333 74° East 240 276 3,900 -1,020 Descending Toronto Center
07:44PM 43.8000 -79.9500 61° Northeast 230 265 3,900  Level Toronto Center
07:45PM 43.8333 -79.8833 55° Northeast 220 253 3,900  Level Toronto Center
07:46PM 43.8833 -79.8167 44° Northeast 220 253 3,900 -540 Level Toronto Center
07:47PM 43.9167 -79.7500 55° Northeast 230 265 2,900 -540 Descending Toronto Center
07:48PM 43.9500 -79.6833 55° Northeast 230 265 2,900  Level Toronto Center
07:49PM 43.9833 -79.6167 55° Northeast 220 253 2,900  Level Toronto Center
07:50PM 44.0000 -79.5333 74° East 200 230 3,000 -180 Climbing Toronto Center
07:51PM 43.9833 -79.5000 125° Southeast 140 161 2,600 -540 Descending Toronto Center
07:52PM 43.9500 -79.4667 144° Southeast 130 150 2,000 -360 Descending Toronto Center
07:53PM 43.9333 -79.4167 115° Southeast 130 150 1,900 -180 Descending Toronto Center
07:54PM 43.9000 -79.4000 160° South 130 150 1,700 -480 Descending Toronto Center
07:55PM 43.8667 -79.3833 160° South 130 150 1,000 -720 Descending Toronto Center